sensor_id;sensor_type;location;lat;lon;timestamp;temperature;humidity
16315;DHT22;8266;52.150;4.768;2024-02-21T00:00:03;12.40;99.90
16315;DHT22;8266;52.150;4.768;2024-02-21T00:02:30;12.40;99.90
16315;DHT22;8266;52.150;4.768;2024-02-21T00:04:57;12.40;99.90
16315;DHT22;8266;52.150;4.768;2024-02-21T00:07:24;12.50;99.90
16315;DHT22;8266;52.150;4.768;2024-02-21T00:09:53;12.40;99.90
16315;DHT22;8266;52.150;4.768;2024-02-21T00:12:20;12.50;99.90
16315;DHT22;8266;52.150;4.768;2024-02-21T00:14:47;12.50;99.90
16315;DHT22;8266;52.150;4.768;2024-02-21T00:17:14;12.50;99.90
16315;DHT22;8266;52.150;4.768;2024-02-21T00:19:41;12.40;99.90
16315;DHT22;8266;52.150;4.768;2024-02-21T00:22:08;12.50;99.90
16315;DHT22;8266;52.150;4.768;2024-02-21T00:24:36;12.50;99.90
16315;DHT22;8266;52.150;4.768;2024-02-21T00:27:05;12.50;99.90
16315;DHT22;8266;52.150;4.768;2024-02-21T00:29:33;12.50;99.90
16315;DHT22;8266;52.150;4.768;2024-02-21T00:32:01;12.50;99.90
16315;DHT22;8266;52.150;4.768;2024-02-21T00:34:28;12.50;99.90
16315;DHT22;8266;52.150;4.768;2024-02-21T00:36:55;12.50;99.90
16315;DHT22;8266;52.150;4.768;2024-02-21T00:39:22;12.50;99.90
16315;DHT22;8266;52.150;4.768;2024-02-21T00:41:49;12.40;99.90
16315;DHT22;8266;52.150;4.768;2024-02-21T00:44:18;12.50;99.90
16315;DHT22;8266;52.150;4.768;2024-02-21T00:46:45;12.50;99.90
16315;DHT22;8266;52.150;4.768;2024-02-21T00:49:12;12.50;99.90
16315;DHT22;8266;52.150;4.768;2024-02-21T00:51:40;12.50;99.90
16315;DHT22;8266;52.150;4.768;2024-02-21T00:54:07;12.40;99.90
16315;DHT22;8266;52.150;4.768;2024-02-21T00:56:34;12.40;99.90
16315;DHT22;8266;52.150;4.768;2024-02-21T00:59:01;12.40;99.90
16315;DHT22;8266;52.150;4.768;2024-02-21T01:01:29;12.40;99.90
16315;DHT22;8266;52.150;4.768;2024-02-21T01:03:56;12.40;99.90
16315;DHT22;8266;52.150;4.768;2024-02-21T01:06:23;12.40;99.90
16315;DHT22;8266;52.150;4.768;2024-02-21T01:08:51;12.40;99.90
16315;DHT22;8266;52.150;4.768;2024-02-21T01:11:18;12.40;99.90
16315;DHT22;8266;52.150;4.768;2024-02-21T01:13:45;12.50;99.90
16315;DHT22;8266;52.150;4.768;2024-02-21T01:16:12;12.50;99.90
16315;DHT22;8266;52.150;4.768;2024-02-21T01:18:41;12.50;99.90
16315;DHT22;8266;52.150;4.768;2024-02-21T01:21:08;12.50;99.90
16315;DHT22;8266;52.150;4.768;2024-02-21T01:23:36;12.50;99.90
16315;DHT22;8266;52.150;4.768;2024-02-21T01:26:03;12.50;99.90
16315;DHT22;8266;52.150;4.768;2024-02-21T01:28:34;12.50;99.90
16315;DHT22;8266;52.150;4.768;2024-02-21T01:31:01;12.60;99.90
16315;DHT22;8266;52.150;4.768;2024-02-21T01:33:29;12.60;99.90
16315;DHT22;8266;52.150;4.768;2024-02-21T01:36:02;12.60;99.90
16315;DHT22;8266;52.150;4.768;2024-02-21T01:38:29;12.60;99.90
16315;DHT22;8266;52.150;4.768;2024-02-21T01:40:57;12.60;99.90
16315;DHT22;8266;52.150;4.768;2024-02-21T01:43:25;12.60;99.90
16315;DHT22;8266;52.150;4.768;2024-02-21T01:45:54;12.60;99.90
16315;DHT22;8266;52.150;4.768;2024-02-21T01:48:22;12.60;99.90
16315;DHT22;8266;52.150;4.768;2024-02-21T01:50:50;12.60;99.90
16315;DHT22;8266;52.150;4.768;2024-02-21T01:53:20;12.60;99.90
16315;DHT22;8266;52.150;4.768;2024-02-21T01:55:48;12.70;99.90
16315;DHT22;8266;52.150;4.768;2024-02-21T01:58:16;12.70;99.90
16315;DHT22;8266;52.150;4.768;2024-02-21T02:00:45;12.70;99.90
16315;DHT22;8266;52.150;4.768;2024-02-21T02:03:12;12.60;99.90
16315;DHT22;8266;52.150;4.768;2024-02-21T02:05:43;12.70;99.90
16315;DHT22;8266;52.150;4.768;2024-02-21T02:08:10;12.70;99.90
16315;DHT22;8266;52.150;4.768;2024-02-21T02:10:39;12.70;99.90
16315;DHT22;8266;52.150;4.768;2024-02-21T02:13:07;12.70;99.90
16315;DHT22;8266;52.150;4.768;2024-02-21T02:15:41;12.70;99.90
16315;DHT22;8266;52.150;4.768;2024-02-21T02:18:08;12.70;99.90
16315;DHT22;8266;52.150;4.768;2024-02-21T02:20:36;12.70;99.90
16315;DHT22;8266;52.150;4.768;2024-02-21T02:23:06;12.70;99.90
16315;DHT22;8266;52.150;4.768;2024-02-21T02:25:35;12.70;99.90
16315;DHT22;8266;52.150;4.768;2024-02-21T02:28:03;12.70;99.90
16315;DHT22;8266;52.150;4.768;2024-02-21T02:30:32;12.70;99.90
16315;DHT22;8266;52.150;4.768;2024-02-21T02:33:01;12.70;99.90
16315;DHT22;8266;52.150;4.768;2024-02-21T02:35:29;12.70;99.90
16315;DHT22;8266;52.150;4.768;2024-02-21T02:37:56;12.70;99.90
16315;DHT22;8266;52.150;4.768;2024-02-21T02:40:23;12.70;99.90
16315;DHT22;8266;52.150;4.768;2024-02-21T02:42:52;12.70;99.90
16315;DHT22;8266;52.150;4.768;2024-02-21T02:45:22;12.70;99.90
16315;DHT22;8266;52.150;4.768;2024-02-21T02:47:49;12.70;99.90
16315;DHT22;8266;52.150;4.768;2024-02-21T02:50:17;12.70;99.90
16315;DHT22;8266;52.150;4.768;2024-02-21T02:52:44;12.70;99.90
16315;DHT22;8266;52.150;4.768;2024-02-21T02:55:11;12.70;99.90
16315;DHT22;8266;52.150;4.768;2024-02-21T02:57:38;12.70;99.90
16315;DHT22;8266;52.150;4.768;2024-02-21T03:00:10;12.70;99.90
16315;DHT22;8266;52.150;4.768;2024-02-21T03:02:39;12.70;99.90
16315;DHT22;8266;52.150;4.768;2024-02-21T03:05:12;12.70;99.90
16315;DHT22;8266;52.150;4.768;2024-02-21T03:07:40;12.70;99.90
16315;DHT22;8266;52.150;4.768;2024-02-21T03:10:08;12.70;99.90
16315;DHT22;8266;52.150;4.768;2024-02-21T03:12:36;12.70;99.90
16315;DHT22;8266;52.150;4.768;2024-02-21T03:15:04;12.70;99.90
16315;DHT22;8266;52.150;4.768;2024-02-21T03:17:33;12.70;99.90
16315;DHT22;8266;52.150;4.768;2024-02-21T03:20:02;12.70;99.90
16315;DHT22;8266;52.150;4.768;2024-02-21T03:22:31;12.70;99.90
16315;DHT22;8266;52.150;4.768;2024-02-21T03:24:58;12.70;99.90
16315;DHT22;8266;52.150;4.768;2024-02-21T03:27:25;12.70;99.90
16315;DHT22;8266;52.150;4.768;2024-02-21T03:29:52;12.70;99.90
16315;DHT22;8266;52.150;4.768;2024-02-21T03:32:20;12.70;99.90
16315;DHT22;8266;52.150;4.768;2024-02-21T03:34:49;12.70;99.90
16315;DHT22;8266;52.150;4.768;2024-02-21T03:37:16;12.70;99.90
16315;DHT22;8266;52.150;4.768;2024-02-21T03:39:43;12.70;99.90
16315;DHT22;8266;52.150;4.768;2024-02-21T03:42:10;12.80;99.90
16315;DHT22;8266;52.150;4.768;2024-02-21T03:44:37;12.70;99.90
16315;DHT22;8266;52.150;4.768;2024-02-21T03:47:05;12.80;99.90
16315;DHT22;8266;52.150;4.768;2024-02-21T03:49:32;12.80;99.90
16315;DHT22;8266;52.150;4.768;2024-02-21T03:52:01;12.80;99.90
16315;DHT22;8266;52.150;4.768;2024-02-21T03:54:28;12.70;99.90
16315;DHT22;8266;52.150;4.768;2024-02-21T03:56:55;12.80;99.90
16315;DHT22;8266;52.150;4.768;2024-02-21T03:59:22;12.80;99.90
16315;DHT22;8266;52.150;4.768;2024-02-21T04:01:51;12.70;99.90
16315;DHT22;8266;52.150;4.768;2024-02-21T04:04:19;12.80;99.90
16315;DHT22;8266;52.150;4.768;2024-02-21T04:06:47;12.70;99.90
16315;DHT22;8266;52.150;4.768;2024-02-21T04:09:15;12.70;99.90
16315;DHT22;8266;52.150;4.768;2024-02-21T04:11:42;12.70;99.90
16315;DHT22;8266;52.150;4.768;2024-02-21T04:14:10;12.70;99.90
16315;DHT22;8266;52.150;4.768;2024-02-21T04:16:37;12.70;99.90
16315;DHT22;8266;52.150;4.768;2024-02-21T04:19:04;12.70;99.90
16315;DHT22;8266;52.150;4.768;2024-02-21T04:21:32;12.70;99.90
16315;DHT22;8266;52.150;4.768;2024-02-21T04:23:59;12.70;99.90
16315;DHT22;8266;52.150;4.768;2024-02-21T04:26:28;12.70;99.90
16315;DHT22;8266;52.150;4.768;2024-02-21T04:28:56;12.70;99.90
16315;DHT22;8266;52.150;4.768;2024-02-21T04:31:23;12.70;99.90
16315;DHT22;8266;52.150;4.768;2024-02-21T04:33:51;12.60;99.90
16315;DHT22;8266;52.150;4.768;2024-02-21T04:36:18;12.60;99.90
16315;DHT22;8266;52.150;4.768;2024-02-21T04:38:45;12.60;99.90
16315;DHT22;8266;52.150;4.768;2024-02-21T04:41:12;12.70;99.90
16315;DHT22;8266;52.150;4.768;2024-02-21T04:43:41;12.60;99.90
16315;DHT22;8266;52.150;4.768;2024-02-21T04:46:08;12.60;99.90
16315;DHT22;8266;52.150;4.768;2024-02-21T04:48:36;12.60;99.90
16315;DHT22;8266;52.150;4.768;2024-02-21T04:51:04;12.60;99.90
16315;DHT22;8266;52.150;4.768;2024-02-21T04:53:31;12.60;99.90
16315;DHT22;8266;52.150;4.768;2024-02-21T04:55:58;12.60;99.90
16315;DHT22;8266;52.150;4.768;2024-02-21T04:58:25;12.60;99.90
16315;DHT22;8266;52.150;4.768;2024-02-21T05:00:54;12.60;99.90
16315;DHT22;8266;52.150;4.768;2024-02-21T05:03:21;12.60;99.90
16315;DHT22;8266;52.150;4.768;2024-02-21T05:05:49;12.60;99.90
16315;DHT22;8266;52.150;4.768;2024-02-21T05:08:16;12.60;99.90
16315;DHT22;8266;52.150;4.768;2024-02-21T05:10:43;12.60;99.90
16315;DHT22;8266;52.150;4.768;2024-02-21T05:13:10;12.60;99.90
16315;DHT22;8266;52.150;4.768;2024-02-21T05:15:37;12.60;99.90
16315;DHT22;8266;52.150;4.768;2024-02-21T05:18:06;12.60;99.90
16315;DHT22;8266;52.150;4.768;2024-02-21T05:20:35;12.60;99.90
16315;DHT22;8266;52.150;4.768;2024-02-21T05:23:03;12.50;99.90
16315;DHT22;8266;52.150;4.768;2024-02-21T05:25:30;12.60;99.90
16315;DHT22;8266;52.150;4.768;2024-02-21T05:27:57;12.60;99.90
16315;DHT22;8266;52.150;4.768;2024-02-21T05:30:27;12.60;99.90
16315;DHT22;8266;52.150;4.768;2024-02-21T05:32:54;12.60;99.90
16315;DHT22;8266;52.150;4.768;2024-02-21T05:35:26;12.60;99.90
16315;DHT22;8266;52.150;4.768;2024-02-21T05:37:54;12.60;99.90
16315;DHT22;8266;52.150;4.768;2024-02-21T05:40:21;12.60;99.90
16315;DHT22;8266;52.150;4.768;2024-02-21T05:42:49;12.60;99.90
16315;DHT22;8266;52.150;4.768;2024-02-21T05:45:17;12.50;99.90
16315;DHT22;8266;52.150;4.768;2024-02-21T05:47:44;12.50;99.90
16315;DHT22;8266;52.150;4.768;2024-02-21T05:50:11;12.50;99.90
16315;DHT22;8266;52.150;4.768;2024-02-21T05:52:41;12.50;99.90
16315;DHT22;8266;52.150;4.768;2024-02-21T05:55:08;12.40;99.90
16315;DHT22;8266;52.150;4.768;2024-02-21T05:57:36;12.50;99.90
16315;DHT22;8266;52.150;4.768;2024-02-21T06:00:04;12.50;99.90
16315;DHT22;8266;52.150;4.768;2024-02-21T06:02:32;12.50;99.90
16315;DHT22;8266;52.150;4.768;2024-02-21T06:04:59;12.50;99.90
16315;DHT22;8266;52.150;4.768;2024-02-21T06:07:26;12.50;99.90
16315;DHT22;8266;52.150;4.768;2024-02-21T06:09:55;12.50;99.90
16315;DHT22;8266;52.150;4.768;2024-02-21T06:12:23;12.40;99.90
16315;DHT22;8266;52.150;4.768;2024-02-21T06:14:50;12.50;99.90
16315;DHT22;8266;52.150;4.768;2024-02-21T06:17:17;12.50;99.90
16315;DHT22;8266;52.150;4.768;2024-02-21T06:19:44;12.40;99.90
16315;DHT22;8266;52.150;4.768;2024-02-21T06:22:11;12.40;99.90
16315;DHT22;8266;52.150;4.768;2024-02-21T06:24:42;12.40;99.90
16315;DHT22;8266;52.150;4.768;2024-02-21T06:27:10;12.40;99.90
16315;DHT22;8266;52.150;4.768;2024-02-21T06:29:41;12.40;99.90
16315;DHT22;8266;52.150;4.768;2024-02-21T06:32:08;12.40;99.90
16315;DHT22;8266;52.150;4.768;2024-02-21T06:34:35;12.40;99.90
16315;DHT22;8266;52.150;4.768;2024-02-21T06:37:03;12.40;99.90
16315;DHT22;8266;52.150;4.768;2024-02-21T06:39:30;12.40;99.90
16315;DHT22;8266;52.150;4.768;2024-02-21T06:41:57;12.40;99.90
16315;DHT22;8266;52.150;4.768;2024-02-21T06:44:26;12.40;99.90
16315;DHT22;8266;52.150;4.768;2024-02-21T06:46:54;12.40;99.90
16315;DHT22;8266;52.150;4.768;2024-02-21T06:49:21;12.40;99.90
16315;DHT22;8266;52.150;4.768;2024-02-21T06:51:48;12.40;99.90
16315;DHT22;8266;52.150;4.768;2024-02-21T06:54:15;12.40;99.90
16315;DHT22;8266;52.150;4.768;2024-02-21T06:56:42;12.40;99.90
16315;DHT22;8266;52.150;4.768;2024-02-21T06:59:10;12.40;99.90
16315;DHT22;8266;52.150;4.768;2024-02-21T07:01:46;12.40;99.90
16315;DHT22;8266;52.150;4.768;2024-02-21T07:04:13;12.40;99.90
16315;DHT22;8266;52.150;4.768;2024-02-21T07:06:40;12.40;99.90
16315;DHT22;8266;52.150;4.768;2024-02-21T07:09:07;12.40;99.90
16315;DHT22;8266;52.150;4.768;2024-02-21T07:11:34;12.40;99.90
16315;DHT22;8266;52.150;4.768;2024-02-21T07:14:01;12.40;99.90
16315;DHT22;8266;52.150;4.768;2024-02-21T07:16:30;12.40;99.90
16315;DHT22;8266;52.150;4.768;2024-02-21T07:18:59;12.40;99.90
16315;DHT22;8266;52.150;4.768;2024-02-21T07:21:26;12.40;99.90
16315;DHT22;8266;52.150;4.768;2024-02-21T07:23:53;12.40;99.90
16315;DHT22;8266;52.150;4.768;2024-02-21T07:26:21;12.40;99.90
16315;DHT22;8266;52.150;4.768;2024-02-21T07:28:48;12.40;99.90
16315;DHT22;8266;52.150;4.768;2024-02-21T07:31:15;12.40;99.90
16315;DHT22;8266;52.150;4.768;2024-02-21T07:33:42;12.40;99.90
16315;DHT22;8266;52.150;4.768;2024-02-21T07:36:11;12.40;99.90
16315;DHT22;8266;52.150;4.768;2024-02-21T07:38:38;12.30;99.90
16315;DHT22;8266;52.150;4.768;2024-02-21T07:41:05;12.40;99.90
16315;DHT22;8266;52.150;4.768;2024-02-21T07:43:32;12.40;99.90
16315;DHT22;8266;52.150;4.768;2024-02-21T07:45:59;12.40;99.90
16315;DHT22;8266;52.150;4.768;2024-02-21T07:48:26;12.40;99.90
16315;DHT22;8266;52.150;4.768;2024-02-21T07:50:53;12.40;99.90
16315;DHT22;8266;52.150;4.768;2024-02-21T07:53:22;12.40;99.90
16315;DHT22;8266;52.150;4.768;2024-02-21T07:55:49;12.40;99.90
16315;DHT22;8266;52.150;4.768;2024-02-21T07:58:16;12.40;99.90
16315;DHT22;8266;52.150;4.768;2024-02-21T08:00:43;12.40;99.90
16315;DHT22;8266;52.150;4.768;2024-02-21T08:03:10;12.40;99.90
16315;DHT22;8266;52.150;4.768;2024-02-21T08:05:37;12.40;99.90
16315;DHT22;8266;52.150;4.768;2024-02-21T08:08:05;12.40;99.90
16315;DHT22;8266;52.150;4.768;2024-02-21T08:10:34;12.40;99.90
16315;DHT22;8266;52.150;4.768;2024-02-21T08:13:01;12.40;99.90
16315;DHT22;8266;52.150;4.768;2024-02-21T08:15:28;12.40;99.90
16315;DHT22;8266;52.150;4.768;2024-02-21T08:17:55;12.50;99.90
16315;DHT22;8266;52.150;4.768;2024-02-21T08:20:25;12.50;99.90
16315;DHT22;8266;52.150;4.768;2024-02-21T08:22:52;12.50;99.90
16315;DHT22;8266;52.150;4.768;2024-02-21T08:25:19;12.50;99.90
16315;DHT22;8266;52.150;4.768;2024-02-21T08:27:56;12.50;99.90
16315;DHT22;8266;52.150;4.768;2024-02-21T08:30:24;12.50;99.90
16315;DHT22;8266;52.150;4.768;2024-02-21T08:32:51;12.50;99.90
16315;DHT22;8266;52.150;4.768;2024-02-21T08:35:19;12.50;99.90
16315;DHT22;8266;52.150;4.768;2024-02-21T08:37:48;12.50;99.90
16315;DHT22;8266;52.150;4.768;2024-02-21T08:40:15;12.50;99.90
16315;DHT22;8266;52.150;4.768;2024-02-21T08:42:47;12.50;99.90
16315;DHT22;8266;52.150;4.768;2024-02-21T08:45:16;12.50;99.90
16315;DHT22;8266;52.150;4.768;2024-02-21T08:47:43;12.60;99.90
16315;DHT22;8266;52.150;4.768;2024-02-21T08:50:10;12.60;99.90
16315;DHT22;8266;52.150;4.768;2024-02-21T08:52:37;12.60;99.90
16315;DHT22;8266;52.150;4.768;2024-02-21T08:55:05;12.60;99.90
16315;DHT22;8266;52.150;4.768;2024-02-21T08:57:35;12.60;99.90
16315;DHT22;8266;52.150;4.768;2024-02-21T09:00:04;12.60;99.90
16315;DHT22;8266;52.150;4.768;2024-02-21T09:02:39;12.60;99.90
16315;DHT22;8266;52.150;4.768;2024-02-21T09:05:07;12.60;99.90
16315;DHT22;8266;52.150;4.768;2024-02-21T09:07:34;12.70;99.90
16315;DHT22;8266;52.150;4.768;2024-02-21T09:10:01;12.70;99.90
16315;DHT22;8266;52.150;4.768;2024-02-21T09:12:29;12.70;99.90
16315;DHT22;8266;52.150;4.768;2024-02-21T09:14:56;12.70;99.90
16315;DHT22;8266;52.150;4.768;2024-02-21T09:17:24;12.70;99.90
16315;DHT22;8266;52.150;4.768;2024-02-21T09:19:52;12.80;99.90
16315;DHT22;8266;52.150;4.768;2024-02-21T09:22:21;12.80;99.90
16315;DHT22;8266;52.150;4.768;2024-02-21T09:24:48;12.80;99.90
16315;DHT22;8266;52.150;4.768;2024-02-21T09:27:15;12.90;99.90
16315;DHT22;8266;52.150;4.768;2024-02-21T09:29:42;12.90;99.90
16315;DHT22;8266;52.150;4.768;2024-02-21T09:32:09;12.90;99.90
16315;DHT22;8266;52.150;4.768;2024-02-21T09:34:36;12.90;99.90
16315;DHT22;8266;52.150;4.768;2024-02-21T09:37:05;13.00;99.90
16315;DHT22;8266;52.150;4.768;2024-02-21T09:39:32;12.90;99.90
16315;DHT22;8266;52.150;4.768;2024-02-21T09:42:05;12.90;99.90
16315;DHT22;8266;52.150;4.768;2024-02-21T09:44:36;13.00;99.90
16315;DHT22;8266;52.150;4.768;2024-02-21T09:47:07;13.00;99.90
16315;DHT22;8266;52.150;4.768;2024-02-21T09:49:37;13.00;99.90
16315;DHT22;8266;52.150;4.768;2024-02-21T09:52:08;13.00;99.90
16315;DHT22;8266;52.150;4.768;2024-02-21T09:54:35;13.00;99.90
16315;DHT22;8266;52.150;4.768;2024-02-21T09:57:06;13.10;99.90
16315;DHT22;8266;52.150;4.768;2024-02-21T09:59:33;13.10;99.90
16315;DHT22;8266;52.150;4.768;2024-02-21T10:02:00;13.10;99.90
16315;DHT22;8266;52.150;4.768;2024-02-21T10:04:28;13.20;99.90
16315;DHT22;8266;52.150;4.768;2024-02-21T10:06:56;13.20;99.90
16315;DHT22;8266;52.150;4.768;2024-02-21T10:09:26;13.30;99.90
16315;DHT22;8266;52.150;4.768;2024-02-21T10:11:55;13.30;99.90
16315;DHT22;8266;52.150;4.768;2024-02-21T10:14:22;13.40;99.90
16315;DHT22;8266;52.150;4.768;2024-02-21T10:16:57;13.40;99.90
16315;DHT22;8266;52.150;4.768;2024-02-21T10:19:24;13.40;99.90
16315;DHT22;8266;52.150;4.768;2024-02-21T10:22:01;13.50;99.90
16315;DHT22;8266;52.150;4.768;2024-02-21T10:24:30;13.50;99.90
16315;DHT22;8266;52.150;4.768;2024-02-21T10:27:05;13.60;99.90
16315;DHT22;8266;52.150;4.768;2024-02-21T10:29:34;13.60;99.90
16315;DHT22;8266;52.150;4.768;2024-02-21T10:32:06;13.60;99.90
16315;DHT22;8266;52.150;4.768;2024-02-21T10:34:33;13.60;99.90
16315;DHT22;8266;52.150;4.768;2024-02-21T10:37:01;13.60;99.90
16315;DHT22;8266;52.150;4.768;2024-02-21T10:39:31;13.60;99.90
16315;DHT22;8266;52.150;4.768;2024-02-21T10:42:00;13.60;99.90
16315;DHT22;8266;52.150;4.768;2024-02-21T10:44:30;13.60;99.90
16315;DHT22;8266;52.150;4.768;2024-02-21T10:46:58;13.60;99.90
16315;DHT22;8266;52.150;4.768;2024-02-21T10:49:27;13.60;99.90
16315;DHT22;8266;52.150;4.768;2024-02-21T10:52:03;13.60;99.90
16315;DHT22;8266;52.150;4.768;2024-02-21T10:54:41;13.60;99.90
16315;DHT22;8266;52.150;4.768;2024-02-21T10:57:13;13.60;99.90
16315;DHT22;8266;52.150;4.768;2024-02-21T10:59:40;13.50;99.90
16315;DHT22;8266;52.150;4.768;2024-02-21T11:02:08;13.50;99.90
16315;DHT22;8266;52.150;4.768;2024-02-21T11:04:36;13.50;99.90
16315;DHT22;8266;52.150;4.768;2024-02-21T11:07:05;13.50;99.90
16315;DHT22;8266;52.150;4.768;2024-02-21T11:09:33;13.40;99.90
16315;DHT22;8266;52.150;4.768;2024-02-21T11:12:05;13.40;99.90
16315;DHT22;8266;52.150;4.768;2024-02-21T11:14:32;13.40;99.90
16315;DHT22;8266;52.150;4.768;2024-02-21T11:17:01;13.40;99.90
16315;DHT22;8266;52.150;4.768;2024-02-21T11:19:29;13.40;99.90
16315;DHT22;8266;52.150;4.768;2024-02-21T11:21:57;13.40;99.90
16315;DHT22;8266;52.150;4.768;2024-02-21T11:24:28;13.40;99.90
16315;DHT22;8266;52.150;4.768;2024-02-21T11:26:56;13.40;99.90
16315;DHT22;8266;52.150;4.768;2024-02-21T11:29:25;13.40;99.90
16315;DHT22;8266;52.150;4.768;2024-02-21T11:31:53;13.40;99.90
16315;DHT22;8266;52.150;4.768;2024-02-21T11:34:29;13.50;99.90
16315;DHT22;8266;52.150;4.768;2024-02-21T11:36:56;13.50;99.90
16315;DHT22;8266;52.150;4.768;2024-02-21T11:39:24;13.60;99.90
16315;DHT22;8266;52.150;4.768;2024-02-21T11:42:02;13.70;99.90
16315;DHT22;8266;52.150;4.768;2024-02-21T11:44:34;13.70;99.90
16315;DHT22;8266;52.150;4.768;2024-02-21T11:47:04;13.80;99.90
16315;DHT22;8266;52.150;4.768;2024-02-21T11:49:35;13.80;99.90
16315;DHT22;8266;52.150;4.768;2024-02-21T11:52:03;13.90;99.90
16315;DHT22;8266;52.150;4.768;2024-02-21T11:54:30;14.00;99.90
16315;DHT22;8266;52.150;4.768;2024-02-21T11:56:58;14.10;99.90
16315;DHT22;8266;52.150;4.768;2024-02-21T11:59:25;14.10;99.90
16315;DHT22;8266;52.150;4.768;2024-02-21T12:01:53;14.20;99.90
16315;DHT22;8266;52.150;4.768;2024-02-21T12:04:21;14.20;99.90
16315;DHT22;8266;52.150;4.768;2024-02-21T12:06:49;14.20;99.90
16315;DHT22;8266;52.150;4.768;2024-02-21T12:09:17;14.20;99.90
16315;DHT22;8266;52.150;4.768;2024-02-21T12:11:44;14.20;99.90
16315;DHT22;8266;52.150;4.768;2024-02-21T12:14:16;14.30;99.90
16315;DHT22;8266;52.150;4.768;2024-02-21T12:16:44;14.30;99.90
16315;DHT22;8266;52.150;4.768;2024-02-21T12:19:14;14.30;99.90
16315;DHT22;8266;52.150;4.768;2024-02-21T12:21:42;14.30;99.90
16315;DHT22;8266;52.150;4.768;2024-02-21T12:24:14;14.30;99.90
16315;DHT22;8266;52.150;4.768;2024-02-21T12:26:41;14.30;99.90
16315;DHT22;8266;52.150;4.768;2024-02-21T12:29:08;14.30;99.90
16315;DHT22;8266;52.150;4.768;2024-02-21T12:31:36;14.30;99.90
16315;DHT22;8266;52.150;4.768;2024-02-21T12:34:04;14.30;99.90
16315;DHT22;8266;52.150;4.768;2024-02-21T12:36:32;14.30;99.90
16315;DHT22;8266;52.150;4.768;2024-02-21T12:39:00;14.20;99.90
16315;DHT22;8266;52.150;4.768;2024-02-21T12:41:30;14.20;99.90
16315;DHT22;8266;52.150;4.768;2024-02-21T12:43:58;14.20;99.90
16315;DHT22;8266;52.150;4.768;2024-02-21T12:46:25;14.20;99.90
16315;DHT22;8266;52.150;4.768;2024-02-21T12:48:53;14.20;99.90
16315;DHT22;8266;52.150;4.768;2024-02-21T12:51:20;14.10;99.90
16315;DHT22;8266;52.150;4.768;2024-02-21T12:53:48;14.10;99.90
16315;DHT22;8266;52.150;4.768;2024-02-21T12:56:16;14.00;99.90
16315;DHT22;8266;52.150;4.768;2024-02-21T12:58:43;14.00;99.90
16315;DHT22;8266;52.150;4.768;2024-02-21T13:01:10;14.00;99.90
16315;DHT22;8266;52.150;4.768;2024-02-21T13:03:37;14.00;99.90
16315;DHT22;8266;52.150;4.768;2024-02-21T13:06:05;14.00;99.90
16315;DHT22;8266;52.150;4.768;2024-02-21T13:08:32;13.90;99.90
16315;DHT22;8266;52.150;4.768;2024-02-21T13:11:02;13.90;99.90
16315;DHT22;8266;52.150;4.768;2024-02-21T13:13:30;13.80;99.90
16315;DHT22;8266;52.150;4.768;2024-02-21T13:15:57;13.80;99.90
16315;DHT22;8266;52.150;4.768;2024-02-21T13:18:24;13.80;99.90
16315;DHT22;8266;52.150;4.768;2024-02-21T13:20:52;13.70;99.90
16315;DHT22;8266;52.150;4.768;2024-02-21T13:23:20;13.70;99.90
16315;DHT22;8266;52.150;4.768;2024-02-21T13:25:48;13.70;99.90
16315;DHT22;8266;52.150;4.768;2024-02-21T13:28:17;13.60;99.90
16315;DHT22;8266;52.150;4.768;2024-02-21T13:30:44;13.60;99.90
16315;DHT22;8266;52.150;4.768;2024-02-21T13:33:11;13.60;99.90
16315;DHT22;8266;52.150;4.768;2024-02-21T13:35:39;13.50;99.90
16315;DHT22;8266;52.150;4.768;2024-02-21T13:38:06;13.50;99.90
16315;DHT22;8266;52.150;4.768;2024-02-21T13:40:35;13.50;99.90
16315;DHT22;8266;52.150;4.768;2024-02-21T13:43:03;13.50;99.90
16315;DHT22;8266;52.150;4.768;2024-02-21T13:45:32;13.50;99.90
16315;DHT22;8266;52.150;4.768;2024-02-21T13:47:59;13.40;99.90
16315;DHT22;8266;52.150;4.768;2024-02-21T13:50:29;13.40;99.90
16315;DHT22;8266;52.150;4.768;2024-02-21T13:53:07;13.40;99.90
16315;DHT22;8266;52.150;4.768;2024-02-21T13:55:35;13.40;99.90
16315;DHT22;8266;52.150;4.768;2024-02-21T13:58:02;13.40;99.90
16315;DHT22;8266;52.150;4.768;2024-02-21T14:00:29;13.40;99.90
16315;DHT22;8266;52.150;4.768;2024-02-21T14:03:00;13.40;99.90
16315;DHT22;8266;52.150;4.768;2024-02-21T14:05:27;13.40;99.90
16315;DHT22;8266;52.150;4.768;2024-02-21T14:07:54;13.40;99.90
16315;DHT22;8266;52.150;4.768;2024-02-21T14:10:21;13.40;99.90
16315;DHT22;8266;52.150;4.768;2024-02-21T14:12:49;13.40;99.90
16315;DHT22;8266;52.150;4.768;2024-02-21T14:15:16;13.40;99.90
16315;DHT22;8266;52.150;4.768;2024-02-21T14:17:43;13.40;99.90
16315;DHT22;8266;52.150;4.768;2024-02-21T14:20:11;13.40;99.90
16315;DHT22;8266;52.150;4.768;2024-02-21T14:22:39;13.40;99.90
16315;DHT22;8266;52.150;4.768;2024-02-21T14:25:07;13.40;99.90
16315;DHT22;8266;52.150;4.768;2024-02-21T14:27:34;13.40;99.90
16315;DHT22;8266;52.150;4.768;2024-02-21T14:30:03;13.40;99.90
16315;DHT22;8266;52.150;4.768;2024-02-21T14:32:30;13.40;99.90
16315;DHT22;8266;52.150;4.768;2024-02-21T14:34:57;13.40;99.90
16315;DHT22;8266;52.150;4.768;2024-02-21T14:37:26;13.40;99.90
16315;DHT22;8266;52.150;4.768;2024-02-21T14:39:53;13.40;99.90
16315;DHT22;8266;52.150;4.768;2024-02-21T14:42:20;13.40;99.90
16315;DHT22;8266;52.150;4.768;2024-02-21T14:44:47;13.40;99.90
16315;DHT22;8266;52.150;4.768;2024-02-21T14:47:14;13.40;99.90
16315;DHT22;8266;52.150;4.768;2024-02-21T14:49:41;13.30;99.90
16315;DHT22;8266;52.150;4.768;2024-02-21T14:52:09;13.30;99.90
16315;DHT22;8266;52.150;4.768;2024-02-21T14:54:37;13.30;99.90
16315;DHT22;8266;52.150;4.768;2024-02-21T14:57:06;13.20;99.90
16315;DHT22;8266;52.150;4.768;2024-02-21T14:59:33;13.20;99.90
16315;DHT22;8266;52.150;4.768;2024-02-21T15:02:01;13.10;99.90
16315;DHT22;8266;52.150;4.768;2024-02-21T15:04:28;13.10;99.90
16315;DHT22;8266;52.150;4.768;2024-02-21T15:06:55;13.00;99.90
16315;DHT22;8266;52.150;4.768;2024-02-21T15:09:22;12.90;99.90
16315;DHT22;8266;52.150;4.768;2024-02-21T15:11:50;12.90;99.90
16315;DHT22;8266;52.150;4.768;2024-02-21T15:14:17;12.80;99.90
16315;DHT22;8266;52.150;4.768;2024-02-21T15:16:45;12.80;99.90
16315;DHT22;8266;52.150;4.768;2024-02-21T15:19:12;12.70;99.90
16315;DHT22;8266;52.150;4.768;2024-02-21T15:21:40;12.70;99.90
16315;DHT22;8266;52.150;4.768;2024-02-21T15:24:08;12.60;99.90
16315;DHT22;8266;52.150;4.768;2024-02-21T15:26:35;12.60;99.90
16315;DHT22;8266;52.150;4.768;2024-02-21T15:29:03;12.50;99.90
16315;DHT22;8266;52.150;4.768;2024-02-21T15:31:31;12.50;99.90
16315;DHT22;8266;52.150;4.768;2024-02-21T15:33:58;12.50;99.90
16315;DHT22;8266;52.150;4.768;2024-02-21T15:36:25;12.40;99.90
16315;DHT22;8266;52.150;4.768;2024-02-21T15:38:54;12.40;99.90
16315;DHT22;8266;52.150;4.768;2024-02-21T15:41:21;12.40;99.90
16315;DHT22;8266;52.150;4.768;2024-02-21T15:43:48;12.40;99.90
16315;DHT22;8266;52.150;4.768;2024-02-21T15:46:17;12.30;99.90
16315;DHT22;8266;52.150;4.768;2024-02-21T15:48:44;12.30;99.90